sensor_id;sensor_type;location;lat;lon;timestamp;P1;durP1;ratioP1;P2;durP2;ratioP2
3197;SDS011;1611;49.394;11.136;2024-02-21T00:01:22;14.35;;;5.00;;
3197;SDS011;1611;49.394;11.136;2024-02-21T00:03:49;12.73;;;4.60;;
3197;SDS011;1611;49.394;11.136;2024-02-21T00:06:15;12.55;;;4.32;;
3197;SDS011;1611;49.394;11.136;2024-02-21T00:08:42;12.60;;;4.07;;
3197;SDS011;1611;49.394;11.136;2024-02-21T00:11:10;14.50;;;5.88;;
3197;SDS011;1611;49.394;11.136;2024-02-21T00:13:37;17.98;;;5.28;;
3197;SDS011;1611;49.394;11.136;2024-02-21T00:16:04;9.55;;;4.85;;
3197;SDS011;1611;49.394;11.136;2024-02-21T00:18:31;11.10;;;5.15;;
3197;SDS011;1611;49.394;11.136;2024-02-21T00:20:58;16.17;;;4.55;;
3197;SDS011;1611;49.394;11.136;2024-02-21T00:23:26;6.68;;;4.03;;
3197;SDS011;1611;49.394;11.136;2024-02-21T00:25:53;16.37;;;4.43;;
3197;SDS011;1611;49.394;11.136;2024-02-21T00:28:21;10.20;;;4.75;;
3197;SDS011;1611;49.394;11.136;2024-02-21T00:30:48;12.10;;;5.20;;
3197;SDS011;1611;49.394;11.136;2024-02-21T00:33:16;12.23;;;4.85;;
3197;SDS011;1611;49.394;11.136;2024-02-21T00:35:43;8.55;;;4.65;;
3197;SDS011;1611;49.394;11.136;2024-02-21T00:38:09;12.02;;;4.97;;
3197;SDS011;1611;49.394;11.136;2024-02-21T00:40:36;14.18;;;4.43;;
3197;SDS011;1611;49.394;11.136;2024-02-21T00:43:03;7.43;;;4.50;;
3197;SDS011;1611;49.394;11.136;2024-02-21T00:45:31;13.23;;;5.15;;
3197;SDS011;1611;49.394;11.136;2024-02-21T00:47:58;17.13;;;6.35;;
3197;SDS011;1611;49.394;11.136;2024-02-21T00:50:25;14.70;;;4.82;;
3197;SDS011;1611;49.394;11.136;2024-02-21T00:52:51;11.63;;;4.32;;
3197;SDS011;1611;49.394;11.136;2024-02-21T00:55:18;18.97;;;5.10;;
3197;SDS011;1611;49.394;11.136;2024-02-21T00:57:45;14.47;;;5.50;;
3197;SDS011;1611;49.394;11.136;2024-02-21T01:00:12;13.77;;;4.70;;
3197;SDS011;1611;49.394;11.136;2024-02-21T01:02:40;7.70;;;4.72;;
3197;SDS011;1611;49.394;11.136;2024-02-21T01:05:07;16.92;;;5.47;;
3197;SDS011;1611;49.394;11.136;2024-02-21T01:07:34;19.92;;;4.70;;
3197;SDS011;1611;49.394;11.136;2024-02-21T01:10:01;11.87;;;5.00;;
3197;SDS011;1611;49.394;11.136;2024-02-21T01:12:28;12.00;;;4.60;;
3197;SDS011;1611;49.394;11.136;2024-02-21T01:14:54;16.85;;;5.10;;
3197;SDS011;1611;49.394;11.136;2024-02-21T01:17:21;15.75;;;4.88;;
3197;SDS011;1611;49.394;11.136;2024-02-21T01:19:49;24.10;;;4.80;;
3197;SDS011;1611;49.394;11.136;2024-02-21T01:22:16;14.90;;;5.50;;
3197;SDS011;1611;49.394;11.136;2024-02-21T01:24:43;21.50;;;4.93;;
3197;SDS011;1611;49.394;11.136;2024-02-21T01:27:09;12.20;;;4.40;;
3197;SDS011;1611;49.394;11.136;2024-02-21T01:29:36;11.25;;;4.32;;
3197;SDS011;1611;49.394;11.136;2024-02-21T01:32:03;11.57;;;4.07;;
3197;SDS011;1611;49.394;11.136;2024-02-21T01:34:31;13.73;;;4.30;;
3197;SDS011;1611;49.394;11.136;2024-02-21T01:36:59;12.82;;;4.68;;
3197;SDS011;1611;49.394;11.136;2024-02-21T01:39:29;7.43;;;4.03;;
3197;SDS011;1611;49.394;11.136;2024-02-21T01:41:56;16.17;;;4.63;;
3197;SDS011;1611;49.394;11.136;2024-02-21T01:44:23;8.00;;;3.90;;
3197;SDS011;1611;49.394;11.136;2024-02-21T01:46:50;14.70;;;4.18;;
3197;SDS011;1611;49.394;11.136;2024-02-21T01:49:17;13.17;;;4.43;;
3197;SDS011;1611;49.394;11.136;2024-02-21T01:51:44;14.52;;;4.95;;
3197;SDS011;1611;49.394;11.136;2024-02-21T01:54:13;12.63;;;4.53;;
3197;SDS011;1611;49.394;11.136;2024-02-21T01:56:41;10.02;;;4.82;;
3197;SDS011;1611;49.394;11.136;2024-02-21T01:59:08;10.70;;;4.63;;
3197;SDS011;1611;49.394;11.136;2024-02-21T02:01:35;14.40;;;4.88;;
3197;SDS011;1611;49.394;11.136;2024-02-21T02:04:01;7.78;;;4.07;;
3197;SDS011;1611;49.394;11.136;2024-02-21T02:06:30;17.15;;;5.72;;
3197;SDS011;1611;49.394;11.136;2024-02-21T02:08:57;17.75;;;5.28;;
3197;SDS011;1611;49.394;11.136;2024-02-21T02:11:25;13.75;;;4.13;;
3197;SDS011;1611;49.394;11.136;2024-02-21T02:13:52;17.70;;;4.47;;
3197;SDS011;1611;49.394;11.136;2024-02-21T02:16:19;15.52;;;5.00;;
3197;SDS011;1611;49.394;11.136;2024-02-21T02:18:46;21.00;;;4.37;;
3197;SDS011;1611;49.394;11.136;2024-02-21T02:21:13;18.55;;;5.43;;
3197;SDS011;1611;49.394;11.136;2024-02-21T02:23:50;10.95;;;4.53;;
3197;SDS011;1611;49.394;11.136;2024-02-21T02:26:17;19.67;;;4.68;;
3197;SDS011;1611;49.394;11.136;2024-02-21T02:28:44;12.30;;;4.00;;
3197;SDS011;1611;49.394;11.136;2024-02-21T02:31:11;14.82;;;5.10;;
3197;SDS011;1611;49.394;11.136;2024-02-21T02:33:38;12.05;;;4.95;;
3197;SDS011;1611;49.394;11.136;2024-02-21T02:36:05;13.73;;;4.28;;
3197;SDS011;1611;49.394;11.136;2024-02-21T02:38:32;16.40;;;4.80;;
3197;SDS011;1611;49.394;11.136;2024-02-21T02:41:00;15.95;;;4.90;;
3197;SDS011;1611;49.394;11.136;2024-02-21T02:43:26;12.88;;;4.95;;
3197;SDS011;1611;49.394;11.136;2024-02-21T02:45:53;17.27;;;4.55;;
3197;SDS011;1611;49.394;11.136;2024-02-21T02:48:20;15.40;;;5.07;;
3197;SDS011;1611;49.394;11.136;2024-02-21T02:50:47;17.70;;;5.30;;
3197;SDS011;1611;49.394;11.136;2024-02-21T02:53:14;12.97;;;4.10;;
3197;SDS011;1611;49.394;11.136;2024-02-21T02:55:41;19.45;;;4.35;;
3197;SDS011;1611;49.394;11.136;2024-02-21T02:58:09;10.10;;;4.60;;
3197;SDS011;1611;49.394;11.136;2024-02-21T03:00:36;15.60;;;4.80;;
3197;SDS011;1611;49.394;11.136;2024-02-21T03:03:04;9.10;;;3.37;;
3197;SDS011;1611;49.394;11.136;2024-02-21T03:05:31;19.77;;;5.10;;
3197;SDS011;1611;49.394;11.136;2024-02-21T03:07:58;15.07;;;4.57;;
3197;SDS011;1611;49.394;11.136;2024-02-21T03:10:24;10.13;;;3.83;;
3197;SDS011;1611;49.394;11.136;2024-02-21T03:12:51;19.37;;;5.70;;
3197;SDS011;1611;49.394;11.136;2024-02-21T03:15:20;13.68;;;4.78;;
3197;SDS011;1611;49.394;11.136;2024-02-21T03:17:47;10.48;;;4.10;;
3197;SDS011;1611;49.394;11.136;2024-02-21T03:20:14;11.27;;;4.63;;
3197;SDS011;1611;49.394;11.136;2024-02-21T03:22:41;17.45;;;5.97;;
3197;SDS011;1611;49.394;11.136;2024-02-21T03:25:08;11.05;;;4.25;;
3197;SDS011;1611;49.394;11.136;2024-02-21T03:27:35;13.52;;;4.55;;
3197;SDS011;1611;49.394;11.136;2024-02-21T03:30:03;11.32;;;4.88;;
3197;SDS011;1611;49.394;11.136;2024-02-21T03:32:31;15.07;;;4.45;;
3197;SDS011;1611;49.394;11.136;2024-02-21T03:34:58;10.27;;;4.43;;
3197;SDS011;1611;49.394;11.136;2024-02-21T03:37:25;13.55;;;4.97;;
3197;SDS011;1611;49.394;11.136;2024-02-21T03:39:52;7.97;;;4.22;;
3197;SDS011;1611;49.394;11.136;2024-02-21T03:42:19;10.65;;;4.43;;
3197;SDS011;1611;49.394;11.136;2024-02-21T03:44:45;18.83;;;4.85;;
3197;SDS011;1611;49.394;11.136;2024-02-21T03:47:12;18.38;;;5.03;;
3197;SDS011;1611;49.394;11.136;2024-02-21T03:49:40;9.50;;;4.53;;
3197;SDS011;1611;49.394;11.136;2024-02-21T03:52:07;10.80;;;4.53;;
3197;SDS011;1611;49.394;11.136;2024-02-21T03:54:34;14.52;;;4.72;;
3197;SDS011;1611;49.394;11.136;2024-02-21T03:57:01;8.07;;;4.57;;
3197;SDS011;1611;49.394;11.136;2024-02-21T03:59:28;8.32;;;3.95;;
3197;SDS011;1611;49.394;11.136;2024-02-21T04:01:54;23.40;;;5.70;;
3197;SDS011;1611;49.394;11.136;2024-02-21T04:04:21;14.07;;;4.93;;
3197;SDS011;1611;49.394;11.136;2024-02-21T04:06:49;9.57;;;4.45;;
3197;SDS011;1611;49.394;11.136;2024-02-21T04:09:17;9.55;;;4.13;;
3197;SDS011;1611;49.394;11.136;2024-02-21T04:11:44;28.52;;;5.05;;
3197;SDS011;1611;49.394;11.136;2024-02-21T04:14:10;15.80;;;4.68;;
3197;SDS011;1611;49.394;11.136;2024-02-21T04:16:37;11.18;;;4.40;;
3197;SDS011;1611;49.394;11.136;2024-02-21T04:19:04;9.32;;;4.30;;
3197;SDS011;1611;49.394;11.136;2024-02-21T04:21:31;14.95;;;4.38;;
3197;SDS011;1611;49.394;11.136;2024-02-21T04:23:59;11.18;;;4.75;;
3197;SDS011;1611;49.394;11.136;2024-02-21T04:26:26;14.80;;;4.57;;
3197;SDS011;1611;49.394;11.136;2024-02-21T04:28:53;12.45;;;4.30;;
3197;SDS011;1611;49.394;11.136;2024-02-21T04:31:20;12.23;;;4.50;;
3197;SDS011;1611;49.394;11.136;2024-02-21T04:33:47;15.77;;;4.10;;
3197;SDS011;1611;49.394;11.136;2024-02-21T04:36:14;11.48;;;5.13;;
3197;SDS011;1611;49.394;11.136;2024-02-21T04:38:40;12.97;;;4.57;;
3197;SDS011;1611;49.394;11.136;2024-02-21T04:41:09;14.73;;;4.53;;
3197;SDS011;1611;49.394;11.136;2024-02-21T04:43:35;17.90;;;4.80;;
3197;SDS011;1611;49.394;11.136;2024-02-21T04:46:02;12.50;;;4.30;;
3197;SDS011;1611;49.394;11.136;2024-02-21T04:48:30;12.60;;;4.45;;
3197;SDS011;1611;49.394;11.136;2024-02-21T04:50:57;18.13;;;4.40;;
3197;SDS011;1611;49.394;11.136;2024-02-21T04:53:24;18.27;;;5.65;;
3197;SDS011;1611;49.394;11.136;2024-02-21T04:55:50;12.20;;;4.78;;
3197;SDS011;1611;49.394;11.136;2024-02-21T04:58:18;18.45;;;4.20;;
3197;SDS011;1611;49.394;11.136;2024-02-21T05:00:45;12.70;;;5.30;;
3197;SDS011;1611;49.394;11.136;2024-02-21T05:03:12;15.40;;;4.50;;
3197;SDS011;1611;49.394;11.136;2024-02-21T05:05:38;13.15;;;4.40;;
3197;SDS011;1611;49.394;11.136;2024-02-21T05:08:05;17.20;;;5.10;;
3197;SDS011;1611;49.394;11.136;2024-02-21T05:10:32;6.50;;;3.97;;
3197;SDS011;1611;49.394;11.136;2024-02-21T05:12:59;11.50;;;4.70;;
3197;SDS011;1611;49.394;11.136;2024-02-21T05:15:27;21.42;;;5.10;;
3197;SDS011;1611;49.394;11.136;2024-02-21T05:17:54;13.95;;;4.68;;
3197;SDS011;1611;49.394;11.136;2024-02-21T05:20:20;21.40;;;4.60;;
3197;SDS011;1611;49.394;11.136;2024-02-21T05:22:47;12.13;;;4.25;;
3197;SDS011;1611;49.394;11.136;2024-02-21T05:25:14;15.07;;;5.00;;
3197;SDS011;1611;49.394;11.136;2024-02-21T05:27:40;14.60;;;5.15;;
3197;SDS011;1611;49.394;11.136;2024-02-21T05:30:07;17.58;;;5.38;;
3197;SDS011;1611;49.394;11.136;2024-02-21T05:32:36;14.57;;;4.57;;
3197;SDS011;1611;49.394;11.136;2024-02-21T05:35:03;13.38;;;4.20;;
3197;SDS011;1611;49.394;11.136;2024-02-21T05:37:30;11.65;;;4.50;;
3197;SDS011;1611;49.394;11.136;2024-02-21T05:39:57;11.68;;;4.28;;
3197;SDS011;1611;49.394;11.136;2024-02-21T05:42:23;15.77;;;4.80;;
3197;SDS011;1611;49.394;11.136;2024-02-21T05:44:50;10.77;;;3.80;;
3197;SDS011;1611;49.394;11.136;2024-02-21T05:47:17;14.98;;;4.18;;
3197;SDS011;1611;49.394;11.136;2024-02-21T05:49:46;16.55;;;4.63;;
3197;SDS011;1611;49.394;11.136;2024-02-21T05:52:13;11.02;;;4.65;;
3197;SDS011;1611;49.394;11.136;2024-02-21T05:54:40;15.50;;;4.28;;
3197;SDS011;1611;49.394;11.136;2024-02-21T05:57:07;6.80;;;4.10;;
3197;SDS011;1611;49.394;11.136;2024-02-21T05:59:34;23.25;;;5.05;;
3197;SDS011;1611;49.394;11.136;2024-02-21T06:02:05;11.48;;;4.63;;
3197;SDS011;1611;49.394;11.136;2024-02-21T06:04:31;15.43;;;4.50;;
3197;SDS011;1611;49.394;11.136;2024-02-21T06:07:00;12.23;;;5.10;;
3197;SDS011;1611;49.394;11.136;2024-02-21T06:09:26;8.48;;;4.22;;
3197;SDS011;1611;49.394;11.136;2024-02-21T06:11:53;14.73;;;4.90;;
3197;SDS011;1611;49.394;11.136;2024-02-21T06:14:20;10.48;;;4.22;;
3197;SDS011;1611;49.394;11.136;2024-02-21T06:16:47;12.60;;;4.45;;
3197;SDS011;1611;49.394;11.136;2024-02-21T06:19:13;25.08;;;5.13;;
3197;SDS011;1611;49.394;11.136;2024-02-21T06:21:40;14.60;;;4.28;;
3197;SDS011;1611;49.394;11.136;2024-02-21T06:24:08;19.02;;;4.95;;
3197;SDS011;1611;49.394;11.136;2024-02-21T06:26:35;16.23;;;4.90;;
3197;SDS011;1611;49.394;11.136;2024-02-21T06:29:02;21.08;;;6.15;;
3197;SDS011;1611;49.394;11.136;2024-02-21T06:31:28;20.10;;;5.90;;
3197;SDS011;1611;49.394;11.136;2024-02-21T06:33:56;17.80;;;5.20;;
3197;SDS011;1611;49.394;11.136;2024-02-21T06:36:23;9.45;;;3.72;;
3197;SDS011;1611;49.394;11.136;2024-02-21T06:38:50;15.02;;;5.40;;
3197;SDS011;1611;49.394;11.136;2024-02-21T06:41:18;15.68;;;4.60;;
3197;SDS011;1611;49.394;11.136;2024-02-21T06:43:45;13.95;;;5.20;;
3197;SDS011;1611;49.394;11.136;2024-02-21T06:46:11;15.98;;;4.45;;
3197;SDS011;1611;49.394;11.136;2024-02-21T06:48:38;15.77;;;5.70;;
3197;SDS011;1611;49.394;11.136;2024-02-21T06:51:05;13.93;;;4.93;;
3197;SDS011;1611;49.394;11.136;2024-02-21T06:53:32;13.48;;;5.00;;
3197;SDS011;1611;49.394;11.136;2024-02-21T06:56:01;13.15;;;4.65;;
3197;SDS011;1611;49.394;11.136;2024-02-21T06:58:29;17.73;;;5.05;;
3197;SDS011;1611;49.394;11.136;2024-02-21T07:00:56;13.07;;;4.53;;
3197;SDS011;1611;49.394;11.136;2024-02-21T07:03:22;16.17;;;5.05;;
3197;SDS011;1611;49.394;11.136;2024-02-21T07:05:49;8.23;;;4.15;;
3197;SDS011;1611;49.394;11.136;2024-02-21T07:08:16;9.35;;;5.00;;
3197;SDS011;1611;49.394;11.136;2024-02-21T07:10:43;12.18;;;4.82;;
3197;SDS011;1611;49.394;11.136;2024-02-21T07:13:09;20.40;;;5.60;;
3197;SDS011;1611;49.394;11.136;2024-02-21T07:15:38;15.00;;;5.35;;
3197;SDS011;1611;49.394;11.136;2024-02-21T07:18:04;15.13;;;5.25;;
3197;SDS011;1611;49.394;11.136;2024-02-21T07:20:31;16.30;;;5.18;;
3197;SDS011;1611;49.394;11.136;2024-02-21T07:22:58;14.43;;;4.28;;
3197;SDS011;1611;49.394;11.136;2024-02-21T07:25:25;21.38;;;4.95;;
3197;SDS011;1611;49.394;11.136;2024-02-21T07:27:52;18.45;;;5.72;;
3197;SDS011;1611;49.394;11.136;2024-02-21T07:30:19;9.48;;;4.28;;
3197;SDS011;1611;49.394;11.136;2024-02-21T07:32:49;21.58;;;5.85;;
3197;SDS011;1611;49.394;11.136;2024-02-21T07:35:17;9.20;;;4.90;;
3197;SDS011;1611;49.394;11.136;2024-02-21T07:37:43;15.45;;;4.65;;
3197;SDS011;1611;49.394;11.136;2024-02-21T07:40:12;16.00;;;4.82;;
3197;SDS011;1611;49.394;11.136;2024-02-21T07:42:39;9.48;;;4.22;;
3197;SDS011;1611;49.394;11.136;2024-02-21T07:45:06;14.82;;;4.22;;
3197;SDS011;1611;49.394;11.136;2024-02-21T07:47:34;10.40;;;4.57;;
3197;SDS011;1611;49.394;11.136;2024-02-21T07:50:02;13.48;;;4.60;;
3197;SDS011;1611;49.394;11.136;2024-02-21T07:52:29;11.70;;;4.28;;
3197;SDS011;1611;49.394;11.136;2024-02-21T07:54:57;12.30;;;4.20;;
3197;SDS011;1611;49.394;11.136;2024-02-21T07:57:25;14.52;;;5.35;;
3197;SDS011;1611;49.394;11.136;2024-02-21T07:59:52;16.57;;;5.10;;
3197;SDS011;1611;49.394;11.136;2024-02-21T08:02:18;9.88;;;4.20;;
3197;SDS011;1611;49.394;11.136;2024-02-21T08:04:45;12.23;;;4.45;;
3197;SDS011;1611;49.394;11.136;2024-02-21T08:07:13;15.87;;;5.07;;
3197;SDS011;1611;49.394;11.136;2024-02-21T08:09:40;15.68;;;4.20;;
3197;SDS011;1611;49.394;11.136;2024-02-21T08:12:07;12.97;;;4.73;;
3197;SDS011;1611;49.394;11.136;2024-02-21T08:14:33;5.70;;;4.07;;
3197;SDS011;1611;49.394;11.136;2024-02-21T08:17:00;13.90;;;3.80;;
3197;SDS011;1611;49.394;11.136;2024-02-21T08:19:28;13.17;;;4.70;;
3197;SDS011;1611;49.394;11.136;2024-02-21T08:21:56;17.73;;;4.90;;
3197;SDS011;1611;49.394;11.136;2024-02-21T08:24:24;15.10;;;4.20;;
3197;SDS011;1611;49.394;11.136;2024-02-21T08:26:50;12.37;;;3.90;;
3197;SDS011;1611;49.394;11.136;2024-02-21T08:29:17;13.30;;;4.43;;
3197;SDS011;1611;49.394;11.136;2024-02-21T08:31:44;11.18;;;3.50;;
3197;SDS011;1611;49.394;11.136;2024-02-21T08:34:11;5.23;;;3.57;;
3197;SDS011;1611;49.394;11.136;2024-02-21T08:36:38;8.80;;;3.97;;
3197;SDS011;1611;49.394;11.136;2024-02-21T08:39:04;16.73;;;4.27;;
3197;SDS011;1611;49.394;11.136;2024-02-21T08:41:33;12.07;;;4.10;;
3197;SDS011;1611;49.394;11.136;2024-02-21T08:44:00;8.53;;;3.90;;
3197;SDS011;1611;49.394;11.136;2024-02-21T08:46:28;9.90;;;4.50;;
3197;SDS011;1611;49.394;11.136;2024-02-21T08:48:55;6.57;;;3.83;;
3197;SDS011;1611;49.394;11.136;2024-02-21T08:51:22;6.47;;;3.30;;
3197;SDS011;1611;49.394;11.136;2024-02-21T08:53:49;9.80;;;3.80;;
3197;SDS011;1611;49.394;11.136;2024-02-21T08:56:16;13.23;;;3.93;;
3197;SDS011;1611;49.394;11.136;2024-02-21T08:58:45;9.30;;;4.00;;
3197;SDS011;1611;49.394;11.136;2024-02-21T09:01:11;9.23;;;3.63;;
3197;SDS011;1611;49.394;11.136;2024-02-21T09:03:39;10.33;;;3.97;;
3197;SDS011;1611;49.394;11.136;2024-02-21T09:06:06;16.90;;;5.00;;
3197;SDS011;1611;49.394;11.136;2024-02-21T09:08:33;14.40;;;4.20;;
3197;SDS011;1611;49.394;11.136;2024-02-21T09:11:00;21.90;;;5.10;;
3197;SDS011;1611;49.394;11.136;2024-02-21T09:13:27;6.93;;;3.47;;
3197;SDS011;1611;49.394;11.136;2024-02-21T09:15:55;12.07;;;3.90;;
3197;SDS011;1611;49.394;11.136;2024-02-21T09:18:22;11.67;;;4.37;;
3197;SDS011;1611;49.394;11.136;2024-02-21T09:20:48;10.03;;;3.30;;
3197;SDS011;1611;49.394;11.136;2024-02-21T09:23:15;10.57;;;3.83;;
3197;SDS011;1611;49.394;11.136;2024-02-21T09:25:44;8.73;;;3.83;;
3197;SDS011;1611;49.394;11.136;2024-02-21T09:28:11;10.33;;;3.90;;
3197;SDS011;1611;49.394;11.136;2024-02-21T09:30:38;6.70;;;3.50;;
3197;SDS011;1611;49.394;11.136;2024-02-21T09:33:06;10.77;;;4.30;;
3197;SDS011;1611;49.394;11.136;2024-02-21T09:35:33;10.57;;;3.40;;
3197;SDS011;1611;49.394;11.136;2024-02-21T09:37:59;10.80;;;3.27;;
3197;SDS011;1611;49.394;11.136;2024-02-21T09:40:27;8.77;;;4.07;;
3197;SDS011;1611;49.394;11.136;2024-02-21T09:42:55;10.33;;;3.57;;
3197;SDS011;1611;49.394;11.136;2024-02-21T09:45:27;13.50;;;3.57;;
3197;SDS011;1611;49.394;11.136;2024-02-21T09:47:58;7.80;;;3.70;;
3197;SDS011;1611;49.394;11.136;2024-02-21T09:50:43;10.30;;;4.23;;
3197;SDS011;1611;49.394;11.136;2024-02-21T09:53:11;8.70;;;3.20;;
3197;SDS011;1611;49.394;11.136;2024-02-21T09:55:39;8.47;;;3.40;;
3197;SDS011;1611;49.394;11.136;2024-02-21T09:58:07;13.57;;;3.97;;
3197;SDS011;1611;49.394;11.136;2024-02-21T10:00:35;8.73;;;4.43;;
3197;SDS011;1611;49.394;11.136;2024-02-21T10:03:02;6.67;;;3.57;;
3197;SDS011;1611;49.394;11.136;2024-02-21T10:05:34;10.50;;;3.60;;
3197;SDS011;1611;49.394;11.136;2024-02-21T10:08:01;7.17;;;3.13;;
3197;SDS011;1611;49.394;11.136;2024-02-21T10:10:28;6.67;;;3.23;;
3197;SDS011;1611;49.394;11.136;2024-02-21T10:12:55;17.97;;;4.33;;
3197;SDS011;1611;49.394;11.136;2024-02-21T10:15:23;12.57;;;3.93;;
3197;SDS011;1611;49.394;11.136;2024-02-21T10:17:58;10.60;;;3.20;;
3197;SDS011;1611;49.394;11.136;2024-02-21T10:20:25;7.77;;;3.10;;
3197;SDS011;1611;49.394;11.136;2024-02-21T10:23:01;9.60;;;2.80;;
3197;SDS011;1611;49.394;11.136;2024-02-21T10:25:32;10.57;;;3.53;;
3197;SDS011;1611;49.394;11.136;2024-02-21T10:28:00;13.70;;;3.20;;
3197;SDS011;1611;49.394;11.136;2024-02-21T10:30:27;10.80;;;3.37;;
3197;SDS011;1611;49.394;11.136;2024-02-21T10:32:54;13.30;;;3.50;;
3197;SDS011;1611;49.394;11.136;2024-02-21T10:35:27;16.93;;;3.47;;
3197;SDS011;1611;49.394;11.136;2024-02-21T10:37:55;11.00;;;3.07;;
3197;SDS011;1611;49.394;11.136;2024-02-21T10:40:24;14.80;;;3.50;;
3197;SDS011;1611;49.394;11.136;2024-02-21T10:42:54;9.23;;;3.50;;
3197;SDS011;1611;49.394;11.136;2024-02-21T10:45:26;12.93;;;4.17;;
3197;SDS011;1611;49.394;11.136;2024-02-21T10:48:00;5.70;;;2.70;;
3197;SDS011;1611;49.394;11.136;2024-02-21T10:50:35;6.23;;;2.93;;
3197;SDS011;1611;49.394;11.136;2024-02-21T10:53:16;7.67;;;3.20;;
3197;SDS011;1611;49.394;11.136;2024-02-21T10:55:54;6.67;;;2.60;;
3197;SDS011;1611;49.394;11.136;2024-02-21T10:58:26;8.80;;;2.80;;
3197;SDS011;1611;49.394;11.136;2024-02-21T11:00:55;8.40;;;2.83;;
3197;SDS011;1611;49.394;11.136;2024-02-21T11:03:22;9.37;;;3.30;;
3197;SDS011;1611;49.394;11.136;2024-02-21T11:05:49;9.90;;;3.33;;
3197;SDS011;1611;49.394;11.136;2024-02-21T11:08:17;10.07;;;3.03;;
3197;SDS011;1611;49.394;11.136;2024-02-21T11:10:45;8.50;;;3.10;;
3197;SDS011;1611;49.394;11.136;2024-02-21T11:13:13;7.47;;;3.40;;
3197;SDS011;1611;49.394;11.136;2024-02-21T11:15:40;11.27;;;3.23;;
3197;SDS011;1611;49.394;11.136;2024-02-21T11:18:07;6.73;;;3.20;;
3197;SDS011;1611;49.394;11.136;2024-02-21T11:20:34;7.03;;;3.00;;
3197;SDS011;1611;49.394;11.136;2024-02-21T11:23:02;13.23;;;3.30;;
3197;SDS011;1611;49.394;11.136;2024-02-21T11:25:29;10.23;;;3.20;;
3197;SDS011;1611;49.394;11.136;2024-02-21T11:28:01;8.63;;;2.90;;
3197;SDS011;1611;49.394;11.136;2024-02-21T11:30:31;11.50;;;3.77;;
3197;SDS011;1611;49.394;11.136;2024-02-21T11:32:59;11.85;;;3.30;;
3197;SDS011;1611;49.394;11.136;2024-02-21T11:35:30;8.13;;;3.00;;
3197;SDS011;1611;49.394;11.136;2024-02-21T11:38:07;11.87;;;3.30;;
3197;SDS011;1611;49.394;11.136;2024-02-21T11:40:35;8.33;;;3.30;;
3197;SDS011;1611;49.394;11.136;2024-02-21T11:43:04;8.90;;;3.50;;
3197;SDS011;1611;49.394;11.136;2024-02-21T11:45:32;7.47;;;3.20;;
3197;SDS011;1611;49.394;11.136;2024-02-21T11:47:59;8.50;;;3.20;;
3197;SDS011;1611;49.394;11.136;2024-02-21T11:50:28;8.53;;;3.63;;
3197;SDS011;1611;49.394;11.136;2024-02-21T11:52:55;5.70;;;2.63;;
3197;SDS011;1611;49.394;11.136;2024-02-21T11:55:22;13.53;;;3.50;;
3197;SDS011;1611;49.394;11.136;2024-02-21T11:57:49;4.97;;;2.80;;
3197;SDS011;1611;49.394;11.136;2024-02-21T12:00:16;9.35;;;3.42;;
3197;SDS011;1611;49.394;11.136;2024-02-21T12:02:46;9.17;;;3.37;;
3197;SDS011;1611;49.394;11.136;2024-02-21T12:05:15;21.73;;;4.10;;
3197;SDS011;1611;49.394;11.136;2024-02-21T12:07:42;15.93;;;3.60;;
3197;SDS011;1611;49.394;11.136;2024-02-21T12:10:09;7.90;;;2.93;;
3197;SDS011;1611;49.394;11.136;2024-02-21T12:12:37;11.17;;;3.40;;
3197;SDS011;1611;49.394;11.136;2024-02-21T12:15:04;13.30;;;8.63;;
3197;SDS011;1611;49.394;11.136;2024-02-21T12:17:32;9.80;;;2.80;;
3197;SDS011;1611;49.394;11.136;2024-02-21T12:20:01;10.20;;;3.70;;
3197;SDS011;1611;49.394;11.136;2024-02-21T12:22:30;7.67;;;3.17;;
3197;SDS011;1611;49.394;11.136;2024-02-21T12:24:58;10.25;;;3.20;;
3197;SDS011;1611;49.394;11.136;2024-02-21T12:27:25;5.37;;;2.50;;
3197;SDS011;1611;49.394;11.136;2024-02-21T12:29:52;6.70;;;3.03;;
3197;SDS011;1611;49.394;11.136;2024-02-21T12:32:19;5.63;;;3.00;;
3197;SDS011;1611;49.394;11.136;2024-02-21T12:34:45;11.60;;;3.67;;
3197;SDS011;1611;49.394;11.136;2024-02-21T12:37:13;7.43;;;3.10;;
3197;SDS011;1611;49.394;11.136;2024-02-21T12:39:41;3.67;;;2.77;;
3197;SDS011;1611;49.394;11.136;2024-02-21T12:42:09;5.93;;;3.40;;
3197;SDS011;1611;49.394;11.136;2024-02-21T12:44:37;8.73;;;3.30;;
3197;SDS011;1611;49.394;11.136;2024-02-21T12:47:03;6.73;;;3.00;;
3197;SDS011;1611;49.394;11.136;2024-02-21T12:49:30;7.83;;;3.00;;
3197;SDS011;1611;49.394;11.136;2024-02-21T12:51:57;9.33;;;3.37;;
3197;SDS011;1611;49.394;11.136;2024-02-21T12:54:25;7.70;;;2.97;;
3197;SDS011;1611;49.394;11.136;2024-02-21T12:56:52;7.17;;;3.10;;
3197;SDS011;1611;49.394;11.136;2024-02-21T12:59:19;6.87;;;3.63;;
3197;SDS011;1611;49.394;11.136;2024-02-21T13:01:46;8.90;;;3.77;;
3197;SDS011;1611;49.394;11.136;2024-02-21T13:04:13;8.30;;;3.10;;
3197;SDS011;1611;49.394;11.136;2024-02-21T13:06:39;11.90;;;3.40;;
3197;SDS011;1611;49.394;11.136;2024-02-21T13:09:06;4.90;;;2.70;;
3197;SDS011;1611;49.394;11.136;2024-02-21T13:11:37;6.20;;;3.07;;
3197;SDS011;1611;49.394;11.136;2024-02-21T13:14:04;6.77;;;3.17;;
3197;SDS011;1611;49.394;11.136;2024-02-21T13:16:30;7.50;;;2.80;;
3197;SDS011;1611;49.394;11.136;2024-02-21T13:18:59;11.77;;;3.10;;
3197;SDS011;1611;49.394;11.136;2024-02-21T13:21:26;13.80;;;2.97;;
3197;SDS011;1611;49.394;11.136;2024-02-21T13:23:52;4.20;;;2.30;;
3197;SDS011;1611;49.394;11.136;2024-02-21T13:26:19;9.70;;;2.80;;
3197;SDS011;1611;49.394;11.136;2024-02-21T13:28:47;9.77;;;3.10;;
3197;SDS011;1611;49.394;11.136;2024-02-21T13:31:14;12.40;;;3.23;;
3197;SDS011;1611;49.394;11.136;2024-02-21T13:33:41;6.30;;;2.27;;
3197;SDS011;1611;49.394;11.136;2024-02-21T13:36:09;6.43;;;3.00;;
3197;SDS011;1611;49.394;11.136;2024-02-21T13:38:36;12.10;;;2.30;;
3197;SDS011;1611;49.394;11.136;2024-02-21T13:41:03;6.87;;;2.80;;
3197;SDS011;1611;49.394;11.136;2024-02-21T13:43:31;8.95;;;3.60;;
3197;SDS011;1611;49.394;11.136;2024-02-21T13:45:59;5.10;;;2.53;;
3197;SDS011;1611;49.394;11.136;2024-02-21T13:48:27;5.57;;;2.43;;
3197;SDS011;1611;49.394;11.136;2024-02-21T13:50:55;3.77;;;2.33;;
3197;SDS011;1611;49.394;11.136;2024-02-21T13:53:22;8.87;;;3.00;;
3197;SDS011;1611;49.394;11.136;2024-02-21T13:55:48;4.60;;;3.17;;
3197;SDS011;1611;49.394;11.136;2024-02-21T13:58:16;10.80;;;3.67;;
3197;SDS011;1611;49.394;11.136;2024-02-21T14:00:43;7.37;;;4.13;;
3197;SDS011;1611;49.394;11.136;2024-02-21T14:03:12;5.37;;;2.77;;
3197;SDS011;1611;49.394;11.136;2024-02-21T14:05:39;12.30;;;3.10;;
3197;SDS011;1611;49.394;11.136;2024-02-21T14:08:06;7.60;;;3.10;;
3197;SDS011;1611;49.394;11.136;2024-02-21T14:10:32;6.57;;;3.20;;
3197;SDS011;1611;49.394;11.136;2024-02-21T14:12:59;6.70;;;3.17;;
3197;SDS011;1611;49.394;11.136;2024-02-21T14:15:26;5.57;;;2.60;;
3197;SDS011;1611;49.394;11.136;2024-02-21T14:17:53;5.10;;;2.40;;
3197;SDS011;1611;49.394;11.136;2024-02-21T14:20:21;2.90;;;1.83;;
3197;SDS011;1611;49.394;11.136;2024-02-21T14:22:48;3.30;;;2.07;;
3197;SDS011;1611;49.394;11.136;2024-02-21T14:25:15;6.53;;;2.57;;
3197;SDS011;1611;49.394;11.136;2024-02-21T14:27:41;8.90;;;2.70;;
3197;SDS011;1611;49.394;11.136;2024-02-21T14:30:09;5.13;;;2.27;;
3197;SDS011;1611;49.394;11.136;2024-02-21T14:32:36;6.10;;;2.63;;
3197;SDS011;1611;49.394;11.136;2024-02-21T14:35:03;6.10;;;2.50;;
3197;SDS011;1611;49.394;11.136;2024-02-21T14:37:32;2.80;;;1.90;;
3197;SDS011;1611;49.394;11.136;2024-02-21T14:39:59;6.10;;;2.50;;
3197;SDS011;1611;49.394;11.136;2024-02-21T14:42:26;5.43;;;2.40;;
3197;SDS011;1611;49.394;11.136;2024-02-21T14:44:53;7.63;;;2.60;;
3197;SDS011;1611;49.394;11.136;2024-02-21T14:47:28;7.27;;;2.33;;
3197;SDS011;1611;49.394;11.136;2024-02-21T14:49:55;3.13;;;1.83;;
3197;SDS011;1611;49.394;11.136;2024-02-21T14:52:22;4.60;;;2.17;;
3197;SDS011;1611;49.394;11.136;2024-02-21T14:54:51;4.60;;;2.55;;